createdAt,value
2023-03-27T00:01:01.198Z,81.35
2023-03-27T00:02:01.545Z,81.25
2023-03-27T00:03:00.036Z,81.67
2023-03-27T00:04:00.456Z,81.98
2023-03-27T00:05:00.646Z,81.77
2023-03-27T00:05:59.990Z,81.04
2023-03-27T00:07:01.303Z,81.04
2023-03-27T00:08:00.612Z,80.83
2023-03-27T00:09:00.045Z,81.15
2023-03-27T00:10:01.341Z,81.35
2023-03-27T00:11:00.681Z,81.25
2023-03-27T00:12:01.145Z,81.25
2023-03-27T00:13:01.400Z,80.94
2023-03-27T00:13:59.764Z,81.04
2023-03-27T00:15:00.214Z,80.83
2023-03-27T00:16:00.493Z,81.08
2023-03-27T00:16:59.969Z,81.39
2023-03-27T00:18:00.215Z,81.56
2023-03-27T00:19:00.507Z,81.60
2023-03-27T00:19:59.930Z,81.18
2023-03-27T00:21:00.310Z,81.18
2023-03-27T00:21:59.619Z,80.98
2023-03-27T00:23:00.003Z,80.87
2023-03-27T00:24:00.341Z,80.87
2023-03-27T00:24:59.692Z,80.77
2023-03-27T00:26:01.072Z,80.77
2023-03-27T00:26:59.467Z,81.08
2023-03-27T00:28:00.794Z,81.29
2023-03-27T00:29:00.198Z,81.60
2023-03-27T00:30:00.536Z,81.60
2023-03-27T00:31:00.270Z,81.74
2023-03-27T00:32:00.341Z,81.43
2023-03-27T00:32:59.682Z,81.43
2023-03-27T00:34:00.072Z,81.53
2023-03-27T00:35:00.376Z,81.22
2023-03-27T00:36:00.803Z,81.63
2023-03-27T00:37:01.147Z,81.74
2023-03-27T00:38:00.523Z,82.26
2023-03-27T00:38:59.909Z,82.51
2023-03-27T00:40:01.029Z,82.51
2023-03-27T00:40:59.934Z,82.71
2023-03-27T00:42:00.010Z,82.92
2023-03-27T00:43:00.308Z,83.03
2023-03-27T00:43:59.770Z,83.23
2023-03-27T00:45:01.107Z,83.44
2023-03-27T00:45:59.475Z,83.69
2023-03-27T00:46:59.873Z,83.80
2023-03-27T00:47:59.216Z,83.80
2023-03-27T00:48:59.570Z,83.90
2023-03-27T00:50:00.392Z,84.11
2023-03-27T00:51:00.249Z,84.00
2023-03-27T00:51:59.736Z,84.11
2023-03-27T00:53:00.111Z,84.00
2023-03-27T00:53:59.515Z,84.31
2023-03-27T00:54:59.827Z,84.42
2023-03-27T00:56:00.287Z,84.42
2023-03-27T00:57:00.527Z,84.52
2023-03-27T00:58:00.911Z,84.52
2023-03-27T00:58:59.259Z,84.52
2023-03-27T01:00:00.618Z,84.63
2023-03-27T01:00:59.234Z,84.73
2023-03-27T01:02:00.376Z,84.94
2023-03-27T01:03:00.719Z,85.08
2023-03-27T01:03:59.109Z,85.04
2023-03-27T01:05:00.421Z,85.14
2023-03-27T01:06:00.839Z,85.08
2023-03-27T01:06:59.173Z,85.29
2023-03-27T01:08:01.790Z,85.50
2023-03-27T01:09:00.851Z,85.50
2023-03-27T01:09:59.189Z,85.50
2023-03-27T01:11:00.568Z,85.60
2023-03-27T01:11:59.927Z,85.91
2023-03-27T01:13:00.309Z,86.02
2023-03-27T01:13:59.701Z,86.12
2023-03-27T01:15:00.036Z,86.22
2023-03-27T01:15:59.513Z,86.22
2023-03-27T01:16:58.832Z,86.33
2023-03-27T01:18:00.261Z,86.43
2023-03-27T01:19:00.551Z,86.65
2023-03-27T01:19:58.918Z,86.85
2023-03-27T01:21:00.371Z,86.99
2023-03-27T01:21:59.651Z,87.06
2023-03-27T01:22:59.089Z,87.06
2023-03-27T01:24:00.791Z,87.20
2023-03-27T01:25:00.128Z,87.30
2023-03-27T01:26:00.546Z,87.30
2023-03-27T01:26:59.896Z,87.41
2023-03-27T01:28:00.261Z,87.52
2023-03-27T01:28:59.663Z,87.52
2023-03-27T01:29:59.117Z,87.73
2023-03-27T01:30:59.722Z,87.83
2023-03-27T01:31:59.836Z,87.93
2023-03-27T01:33:00.312Z,87.83
2023-03-27T01:33:59.609Z,87.93
2023-03-27T01:35:01.067Z,88.04
2023-03-27T01:36:00.715Z,87.93
2023-03-27T01:36:59.800Z,87.73
2023-03-27T01:37:59.319Z,87.93
2023-03-27T01:38:58.581Z,88.04
2023-03-27T01:39:59.962Z,88.14
2023-03-27T01:41:00.373Z,88.14
2023-03-27T01:41:58.820Z,88.24
2023-03-27T01:43:00.177Z,88.14
2023-03-27T01:43:58.551Z,88.14
2023-03-27T01:44:58.957Z,88.04
2023-03-27T01:45:59.337Z,88.14
2023-03-27T01:46:58.720Z,88.14
2023-03-27T01:48:00.325Z,88.24
2023-03-27T01:48:58.435Z,88.14
2023-03-27T01:49:59.833Z,88.14
2023-03-27T01:51:00.216Z,88.14
2023-03-27T01:51:59.569Z,88.14
2023-03-27T01:52:58.992Z,88.04
2023-03-27T01:53:59.439Z,88.04
2023-03-27T01:54:59.804Z,88.04
2023-03-27T01:55:59.193Z,87.83
2023-03-27T01:56:59.553Z,87.83
2023-03-27T01:57:59.917Z,87.73
2023-03-27T01:58:59.293Z,87.73
2023-03-27T02:00:17.989Z,87.83
2023-03-27T02:01:00.174Z,87.83
2023-03-27T02:01:58.479Z,88.14
2023-03-27T02:02:59.904Z,88.14
2023-03-27T02:03:58.230Z,88.24
2023-03-27T02:04:58.644Z,88.35
2023-03-27T02:06:00.262Z,88.45
2023-03-27T02:06:59.312Z,88.24
2023-03-27T02:07:59.700Z,88.14
2023-03-27T02:08:59.057Z,88.24
2023-03-27T02:09:58.448Z,88.24
2023-03-27T02:10:59.845Z,88.35
2023-03-27T02:11:59.158Z,88.35
2023-03-27T02:12:58.557Z,88.56
2023-03-27T02:13:59.908Z,88.76
2023-03-27T02:15:23.161Z,88.98
2023-03-27T02:16:00.636Z,89.18
2023-03-27T02:16:58.973Z,89.39
2023-03-27T02:17:59.574Z,89.60
2023-03-27T02:18:58.785Z,89.85
2023-03-27T02:19:59.098Z,90.06
2023-03-27T02:20:59.515Z,90.26
2023-03-27T02:21:59.011Z,90.37
2023-03-27T02:22:59.399Z,90.58
2023-03-27T02:23:58.915Z,90.68
2023-03-27T02:24:58.224Z,90.89
2023-03-27T02:25:59.625Z,90.89
2023-03-27T02:26:58.980Z,91.10
2023-03-27T02:27:59.342Z,91.31
2023-03-27T02:28:59.790Z,91.52
2023-03-27T02:29:59.213Z,91.62
2023-03-27T02:31:05.745Z,91.72
2023-03-27T02:31:59.049Z,91.72
2023-03-27T02:32:58.458Z,91.72
2023-03-27T02:33:57.752Z,91.83
2023-03-27T02:34:58.197Z,92.03
2023-03-27T02:35:58.702Z,92.25
2023-03-27T02:36:58.954Z,92.25
2023-03-27T02:37:58.390Z,92.25
2023-03-27T02:38:58.724Z,92.25
2023-03-27T02:39:59.129Z,92.35
2023-03-27T02:40:59.726Z,92.50
2023-03-27T02:41:59.036Z,92.56
2023-03-27T02:42:59.489Z,92.71
2023-03-27T02:43:57.873Z,92.81
2023-03-27T02:44:59.310Z,92.91
2023-03-27T02:45:57.863Z,93.02
2023-03-27T02:46:59.150Z,93.12
2023-03-27T02:47:58.654Z,93.23
2023-03-27T02:48:58.985Z,93.23
2023-03-27T02:49:58.427Z,93.33
2023-03-27T02:50:58.140Z,93.44
2023-03-27T02:51:59.205Z,93.54
2023-03-27T02:52:58.595Z,93.65
2023-03-27T02:53:59.000Z,93.85
2023-03-27T02:54:59.394Z,93.85
2023-03-27T02:55:58.786Z,93.85
2023-03-27T02:56:59.225Z,93.85
2023-03-27T02:57:57.530Z,93.96
2023-03-27T02:58:58.922Z,94.06
2023-03-27T02:59:59.288Z,94.06
2023-03-27T03:00:57.903Z,94.06
2023-03-27T03:01:59.174Z,94.06
2023-03-27T03:02:57.639Z,94.17
2023-03-27T03:03:57.944Z,94.21
2023-03-27T03:04:58.339Z,94.17
2023-03-27T03:05:57.686Z,94.37
2023-03-27T03:06:58.121Z,94.48
2023-03-27T03:07:57.494Z,94.48
2023-03-27T03:08:59.200Z,94.48
2023-03-27T03:09:59.283Z,94.37
2023-03-27T03:10:57.841Z,94.27
2023-03-27T03:11:59.039Z,94.17
2023-03-27T03:12:58.412Z,94.17
2023-03-27T03:13:57.878Z,94.17
2023-03-27T03:14:58.214Z,94.06
2023-03-27T03:15:58.629Z,94.06
2023-03-27T03:16:58.092Z,93.96
2023-03-27T03:17:57.507Z,94.06
2023-03-27T03:18:58.821Z,94.06
2023-03-27T03:19:57.237Z,94.06
2023-03-27T03:20:57.871Z,94.21
2023-03-27T03:21:58.074Z,94.31
2023-03-27T03:22:58.418Z,94.27
2023-03-27T03:23:59.241Z,94.31
2023-03-27T03:24:58.310Z,94.42
2023-03-27T03:25:57.709Z,94.31
2023-03-27T03:26:58.054Z,94.21
2023-03-27T03:27:57.509Z,94.31
2023-03-27T03:29:00.476Z,94.31
2023-03-27T03:29:58.278Z,94.21
2023-03-27T03:30:57.863Z,94.21
2023-03-27T03:31:57.124Z,94.31
2023-03-27T03:32:57.588Z,94.31
2023-03-27T03:33:58.912Z,94.31
2023-03-27T03:34:58.259Z,94.42
2023-03-27T03:35:57.737Z,94.42
2023-03-27T03:36:57.067Z,94.31
2023-03-27T03:37:58.484Z,94.31
2023-03-27T03:38:57.875Z,94.42
2023-03-27T03:39:58.208Z,94.42
2023-03-27T03:40:57.790Z,94.52
2023-03-27T03:41:57.953Z,94.63
2023-03-27T03:42:58.402Z,94.52
2023-03-27T03:43:58.902Z,94.52
2023-03-27T03:44:57.244Z,94.42
2023-03-27T03:45:57.654Z,94.42
2023-03-27T03:46:56.987Z,94.42
2023-03-27T03:47:57.474Z,94.52
2023-03-27T03:48:59.304Z,94.52
2023-03-27T03:49:58.193Z,94.52
2023-03-27T03:50:58.795Z,94.52
2023-03-27T03:52:04.487Z,94.63
2023-03-27T03:52:59.290Z,94.67
2023-03-27T03:53:57.697Z,94.84
2023-03-27T03:54:57.131Z,94.78
2023-03-27T03:55:57.610Z,94.88
2023-03-27T03:56:57.023Z,94.84
2023-03-27T03:57:57.330Z,94.88
2023-03-27T03:58:56.703Z,94.98
2023-03-27T03:59:58.106Z,94.94
2023-03-27T04:00:58.512Z,94.98
2023-03-27T04:01:56.973Z,95.04
2023-03-27T04:02:58.355Z,95.19
2023-03-27T04:03:56.691Z,95.09
2023-03-27T04:04:58.053Z,95.09
2023-03-27T04:05:58.479Z,95.09
2023-03-27T04:06:56.914Z,95.09
2023-03-27T04:07:58.319Z,94.98
2023-03-27T04:08:56.722Z,95.09
2023-03-27T04:09:57.130Z,94.98
2023-03-27T04:10:57.671Z,95.09
2023-03-27T04:11:56.938Z,95.19
2023-03-27T04:12:58.343Z,95.19
2023-03-27T04:13:56.758Z,95.19
2023-03-27T04:14:57.176Z,95.29
2023-03-27T04:15:56.599Z,95.40
2023-03-27T04:16:57.946Z,95.50
2023-03-27T04:17:57.456Z,95.50
2023-03-27T04:18:56.921Z,95.50
2023-03-27T04:19:57.294Z,95.40
2023-03-27T04:20:57.689Z,95.29
2023-03-27T04:21:57.939Z,95.40
2023-03-27T04:22:56.353Z,95.40
2023-03-27T04:23:56.782Z,95.40
2023-03-27T04:24:57.202Z,95.50
2023-03-27T04:25:57.530Z,95.40
2023-03-27T04:26:57.943Z,95.61
2023-03-27T04:27:56.362Z,95.61
2023-03-27T04:28:57.737Z,95.61
2023-03-27T04:29:58.153Z,95.72
2023-03-27T04:30:56.734Z,95.61
2023-03-27T04:31:56.982Z,95.61
2023-03-27T04:32:57.373Z,95.86
2023-03-27T04:33:56.783Z,95.92
2023-03-27T04:34:58.146Z,95.97
2023-03-27T04:36:06.068Z,95.92
2023-03-27T04:36:59.138Z,95.82
2023-03-27T04:37:57.374Z,95.82
2023-03-27T04:38:56.817Z,95.86
2023-03-27T04:39:56.170Z,95.86
2023-03-27T04:40:57.744Z,95.97
2023-03-27T04:41:57.963Z,95.97
2023-03-27T04:42:56.388Z,95.97
2023-03-27T04:43:57.740Z,95.97
2023-03-27T04:44:56.153Z,95.97
2023-03-27T04:45:56.577Z,95.97
2023-03-27T04:46:57.999Z,95.97
2023-03-27T04:47:56.562Z,95.86
2023-03-27T04:48:57.869Z,95.86
2023-03-27T04:49:56.245Z,95.76
2023-03-27T04:50:56.840Z,95.76
2023-03-27T04:51:56.055Z,95.76
2023-03-27T04:52:56.475Z,95.86
2023-03-27T04:53:56.891Z,95.86
2023-03-27T04:54:56.774Z,95.86
2023-03-27T04:55:56.681Z,95.86
2023-03-27T04:56:56.067Z,95.65
2023-03-27T04:57:57.439Z,95.65
2023-03-27T04:58:55.861Z,95.76
2023-03-27T04:59:56.261Z,95.76
2023-03-27T05:00:58.204Z,95.65
2023-03-27T05:01:56.056Z,95.76
2023-03-27T05:02:56.522Z,95.76
2023-03-27T05:03:55.939Z,95.76
2023-03-27T05:04:56.263Z,95.61
2023-03-27T05:05:57.650Z,95.50
2023-03-27T05:06:56.131Z,95.40
2023-03-27T05:07:57.454Z,95.29
2023-03-27T05:08:55.892Z,95.09
2023-03-27T05:09:56.248Z,95.03
2023-03-27T05:10:56.956Z,95.03
2023-03-27T05:11:56.054Z,95.13
2023-03-27T05:12:58.416Z,95.13
2023-03-27T05:13:55.860Z,94.92
2023-03-27T05:14:56.270Z,95.03
2023-03-27T05:15:55.640Z,95.03
2023-03-27T05:16:56.041Z,95.03
2023-03-27T05:17:56.532Z,94.92
2023-03-27T05:18:56.133Z,95.03
2023-03-27T05:19:57.215Z,94.92
2023-03-27T05:20:55.779Z,94.82
2023-03-27T05:21:56.038Z,94.82
2023-03-27T05:22:56.525Z,94.82
2023-03-27T05:23:55.858Z,94.82
2023-03-27T05:24:56.365Z,94.92
2023-03-27T05:26:00.285Z,94.92
2023-03-27T05:26:57.058Z,94.92
2023-03-27T05:27:57.508Z,94.82
2023-03-27T05:28:55.867Z,94.82
2023-03-27T05:29:56.345Z,94.82
2023-03-27T05:30:56.060Z,94.82
2023-03-27T05:31:56.159Z,94.82
2023-03-27T05:32:55.545Z,94.92
2023-03-27T05:33:55.914Z,94.92
2023-03-27T05:34:56.362Z,94.92
2023-03-27T05:35:55.816Z,94.82
2023-03-27T05:36:56.155Z,94.82
2023-03-27T05:37:55.522Z,94.82
2023-03-27T05:38:55.937Z,94.71
2023-03-27T05:39:56.361Z,94.71
2023-03-27T05:40:55.930Z,94.71
2023-03-27T05:41:56.197Z,94.71
2023-03-27T05:42:55.603Z,94.82
2023-03-27T05:43:55.991Z,95.29
2023-03-27T05:44:56.368Z,95.29
2023-03-27T05:45:55.873Z,95.29
2023-03-27T05:46:56.295Z,95.19
2023-03-27T05:47:55.733Z,95.09
2023-03-27T05:48:56.119Z,94.98
2023-03-27T05:49:55.510Z,94.88
2023-03-27T05:50:56.122Z,94.88
2023-03-27T05:51:55.362Z,94.88
2023-03-27T05:52:55.808Z,94.98
2023-03-27T05:53:55.174Z,94.98
2023-03-27T05:54:55.638Z,94.98
2023-03-27T05:56:02.750Z,94.98
2023-03-27T05:56:56.653Z,94.98
2023-03-27T05:57:55.905Z,94.88
2023-03-27T05:58:55.330Z,94.98
2023-03-27T05:59:55.735Z,94.98
2023-03-27T06:00:55.259Z,94.88
2023-03-27T06:01:55.551Z,94.88
2023-03-27T06:02:56.580Z,94.78
2023-03-27T06:03:55.458Z,94.88
2023-03-27T06:04:55.802Z,94.84
2023-03-27T06:05:55.153Z,94.73
2023-03-27T06:06:55.591Z,94.73
2023-03-27T06:07:55.998Z,94.63
2023-03-27T06:08:55.403Z,94.63
2023-03-27T06:09:55.836Z,94.63
2023-03-27T06:10:55.425Z,94.73
2023-03-27T06:11:55.604Z,94.84
2023-03-27T06:12:54.980Z,94.94
2023-03-27T06:13:55.806Z,94.94
2023-03-27T06:14:55.878Z,94.94
2023-03-27T06:15:55.494Z,94.94
2023-03-27T06:16:55.586Z,95.04
2023-03-27T06:17:54.991Z,95.04
2023-03-27T06:18:55.522Z,94.94
2023-03-27T06:19:55.777Z,95.00
2023-03-27T06:20:55.556Z,94.90
2023-03-27T06:21:55.588Z,95.00
2023-03-27T06:22:54.882Z,94.90
2023-03-27T06:23:55.297Z,95.10
2023-03-27T06:24:55.701Z,95.10
2023-03-27T06:25:55.387Z,95.21
2023-03-27T06:26:55.473Z,95.21
2023-03-27T06:27:54.835Z,95.10
2023-03-27T06:28:55.221Z,94.79
2023-03-27T06:29:54.814Z,94.58
2023-03-27T06:30:55.306Z,94.75
2023-03-27T06:31:55.585Z,94.75
2023-03-27T06:32:54.968Z,94.54
2023-03-27T06:33:55.357Z,94.64
2023-03-27T06:34:55.598Z,94.64
2023-03-27T06:35:56.241Z,94.64
2023-03-27T06:36:55.428Z,94.85
2023-03-27T06:37:54.818Z,94.85
2023-03-27T06:38:55.203Z,94.75
2023-03-27T06:39:54.553Z,94.64
2023-03-27T06:40:56.076Z,94.54
2023-03-27T06:41:55.311Z,94.64
2023-03-27T06:42:54.697Z,94.60
2023-03-27T06:43:55.164Z,94.39
2023-03-27T06:44:54.658Z,94.18
2023-03-27T06:45:55.260Z,94.18
2023-03-27T06:46:55.553Z,94.08
2023-03-27T06:47:57.426Z,94.29
2023-03-27T06:48:56.341Z,94.49
2023-03-27T06:49:54.651Z,94.18
2023-03-27T06:50:56.339Z,94.18
2023-03-27T06:51:55.474Z,94.29
2023-03-27T06:52:54.516Z,94.18
2023-03-27T06:53:55.878Z,93.87
2023-03-27T06:54:55.342Z,93.87
2023-03-27T06:55:54.838Z,93.77
2023-03-27T06:56:56.082Z,93.77
2023-03-27T06:57:55.385Z,93.35
2023-03-27T06:58:54.827Z,93.41
2023-03-27T06:59:55.264Z,93.93
2023-03-27T07:00:54.648Z,93.73
2023-03-27T07:01:55.134Z,93.73
2023-03-27T07:02:54.396Z,93.52
2023-03-27T07:03:54.786Z,92.99
2023-03-27T07:05:04.298Z,92.99
2023-03-27T07:05:55.902Z,92.99
2023-03-27T07:06:56.002Z,93.10
2023-03-27T07:07:54.380Z,93.27
2023-03-27T07:08:54.806Z,93.89
2023-03-27T07:09:55.194Z,93.79
2023-03-27T07:11:55.033Z,93.27
2023-03-27T07:12:54.332Z,93.68
2023-03-27T07:13:56.042Z,93.37
2023-03-27T07:14:54.096Z,93.05
2023-03-27T07:15:54.553Z,92.95
2023-03-27T07:16:55.015Z,92.95
2023-03-27T07:17:54.374Z,92.95
2023-03-27T07:18:54.710Z,92.95
2023-03-27T07:19:55.183Z,93.05
2023-03-27T07:20:54.674Z,93.33
2023-03-27T07:21:54.883Z,93.43
2023-03-27T07:22:56.436Z,93.64
2023-03-27T07:23:54.946Z,93.23
2023-03-27T07:24:54.967Z,93.23
2023-03-27T07:25:55.616Z,93.33
2023-03-27T07:26:54.794Z,93.54
2023-03-27T07:27:54.147Z,93.48
2023-03-27T07:28:54.571Z,93.68
2023-03-27T07:29:54.957Z,93.68
2023-03-27T07:30:54.355Z,93.68
2023-03-27T07:31:57.873Z,93.89
2023-03-27T07:32:54.221Z,93.99
2023-03-27T07:33:55.487Z,94.20
2023-03-27T07:34:53.864Z,94.47
2023-03-27T07:35:54.370Z,94.57
2023-03-27T07:36:55.601Z,94.57
2023-03-27T07:37:54.020Z,94.57
2023-03-27T07:38:54.409Z,94.57
2023-03-27T07:39:55.788Z,94.68
2023-03-27T07:40:54.140Z,94.89
2023-03-27T07:41:54.529Z,94.78
2023-03-27T07:42:54.898Z,94.78
2023-03-27T07:43:55.165Z,94.78
2023-03-27T07:44:54.581Z,94.78
2023-03-27T07:45:53.997Z,94.47
2023-03-27T07:46:54.321Z,94.47
2023-03-27T07:47:54.690Z,94.68
2023-03-27T07:48:53.977Z,94.78
2023-03-27T07:49:54.372Z,94.89
2023-03-27T07:50:56.118Z,94.89
2023-03-27T07:51:54.068Z,94.74
2023-03-27T07:52:54.417Z,94.64
2023-03-27T07:53:53.748Z,94.64
2023-03-27T07:54:54.075Z,94.53
2023-03-27T07:55:54.687Z,94.74
2023-03-27T07:56:54.771Z,94.53
2023-03-27T07:58:01.344Z,94.32
2023-03-27T07:58:55.535Z,94.32
2023-03-27T07:59:54.844Z,94.22
2023-03-27T08:00:54.263Z,94.32
2023-03-27T08:01:54.591Z,94.32
2023-03-27T08:02:55.045Z,94.49
2023-03-27T08:03:54.932Z,94.59
2023-03-27T08:04:54.806Z,94.59
2023-03-27T08:05:54.233Z,94.59
2023-03-27T08:06:54.441Z,94.34
2023-03-27T08:07:53.777Z,93.82
2023-03-27T08:08:54.123Z,93.72
2023-03-27T08:09:54.518Z,93.30
2023-03-27T08:10:53.883Z,92.36
2023-03-27T08:11:55.156Z,91.95
2023-03-27T08:12:54.492Z,92.36
2023-03-27T08:13:54.857Z,91.95
2023-03-27T08:14:54.265Z,91.95
2023-03-27T08:15:53.650Z,92.05
2023-03-27T08:17:05.182Z,91.43
2023-03-27T08:17:55.617Z,91.60
2023-03-27T08:18:53.590Z,91.08
2023-03-27T08:19:54.906Z,90.25
2023-03-27T08:20:53.275Z,89.83
2023-03-27T08:21:53.656Z,89.73
2023-03-27T08:22:54.974Z,89.62
2023-03-27T08:23:55.625Z,88.79
2023-03-27T08:24:54.705Z,88.07
2023-03-27T08:25:55.407Z,88.13
2023-03-27T08:26:54.380Z,87.92
2023-03-27T08:27:53.998Z,88.34
2023-03-27T08:28:55.084Z,87.71
2023-03-27T08:29:53.467Z,87.61
2023-03-27T08:30:53.893Z,87.78
2023-03-27T08:31:54.185Z,88.82
2023-03-27T08:32:53.552Z,88.67
2023-03-27T08:33:53.965Z,88.26
2023-03-27T08:34:53.183Z,88.15
2023-03-27T08:35:53.604Z,87.63
2023-03-27T08:36:54.895Z,87.01
2023-03-27T08:37:54.180Z,87.22
2023-03-27T08:38:53.644Z,87.63
2023-03-27T08:39:54.084Z,85.66
2023-03-27T08:40:53.309Z,85.04
2023-03-27T08:41:53.782Z,84.63
2023-03-27T08:42:53.035Z,84.73
2023-03-27T08:43:53.369Z,82.97
2023-03-27T08:44:53.765Z,83.34
2023-03-27T08:45:54.197Z,83.38
2023-03-27T08:46:53.422Z,83.28
2023-03-27T08:47:54.748Z,82.86
2023-03-27T08:48:53.076Z,83.24
2023-03-27T08:49:53.391Z,83.86
2023-03-27T08:50:53.802Z,84.69
2023-03-27T08:51:53.036Z,84.65
2023-03-27T08:52:53.422Z,84.44
2023-03-27T08:53:53.755Z,83.41
2023-03-27T08:54:53.987Z,81.65
2023-03-27T08:55:53.403Z,81.13
2023-03-27T08:56:53.850Z,80.23
2023-03-27T08:57:54.004Z,80.02
2023-03-27T08:58:54.386Z,80.33
2023-03-27T08:59:54.703Z,80.33
2023-03-27T09:00:54.011Z,79.96
2023-03-27T09:01:54.424Z,80.16
2023-03-27T09:02:52.881Z,80.68
2023-03-27T09:03:54.199Z,79.55
2023-03-27T09:04:53.402Z,79.85
2023-03-27T09:05:52.706Z,79.20
2023-03-27T09:06:54.011Z,79.51
2023-03-27T09:07:54.104Z,80.09
2023-03-27T09:08:52.630Z,78.64
2023-03-27T09:09:53.005Z,78.61
2023-03-27T09:10:53.299Z,78.09
2023-03-27T09:11:52.569Z,78.16
2023-03-27T09:12:52.907Z,77.43
2023-03-27T09:13:53.254Z,76.29
2023-03-27T09:14:52.552Z,76.05
2023-03-27T09:15:53.847Z,75.95
2023-03-27T09:16:53.229Z,74.53
2023-03-27T09:17:53.509Z,74.74
2023-03-27T09:18:53.771Z,74.63
2023-03-27T09:19:54.188Z,75.36
2023-03-27T09:20:54.424Z,74.63
2023-03-27T09:21:53.733Z,74.12
2023-03-27T09:22:54.071Z,73.60
2023-03-27T09:23:52.425Z,73.19
2023-03-27T09:24:53.769Z,74.32
2023-03-27T09:25:53.172Z,73.91
2023-03-27T09:27:06.387Z,72.77
2023-03-27T09:27:53.725Z,70.94
2023-03-27T09:28:53.996Z,71.46
2023-03-27T09:29:52.315Z,71.98
2023-03-27T09:30:54.039Z,70.94
2023-03-27T09:31:53.070Z,71.46
2023-03-27T09:32:53.292Z,71.67
2023-03-27T09:33:53.632Z,71.36
2023-03-27T09:34:52.996Z,72.29
2023-03-27T09:35:53.268Z,72.81
2023-03-27T09:36:52.618Z,72.71
2023-03-27T09:37:53.880Z,71.36
2023-03-27T09:38:53.261Z,71.36
2023-03-27T09:39:53.502Z,72.81
2023-03-27T09:40:53.926Z,72.29
2023-03-27T09:41:53.189Z,70.84
2023-03-27T09:42:53.365Z,70.94
2023-03-27T09:43:52.627Z,70.84
2023-03-27T09:44:53.938Z,70.73
2023-03-27T09:45:53.206Z,70.84
2023-03-27T09:46:53.583Z,71.36
2023-03-27T09:47:53.045Z,71.04
2023-03-27T09:48:53.260Z,71.36
2023-03-27T09:49:53.645Z,71.36
2023-03-27T09:50:53.034Z,70.73
2023-03-27T09:51:52.387Z,70.21
2023-03-27T09:52:52.758Z,70.84
2023-03-27T09:53:53.089Z,70.11
2023-03-27T09:54:52.424Z,70.32
2023-03-27T09:55:53.800Z,70.73
2023-03-27T09:56:53.170Z,71.88
2023-03-27T09:57:52.476Z,71.15
2023-03-27T09:58:52.976Z,71.77
2023-03-27T09:59:53.167Z,73.11
2023-03-27T10:00:52.616Z,73.74
2023-03-27T10:01:53.967Z,75.84
2023-03-27T10:02:52.344Z,77.02
2023-03-27T10:03:53.674Z,79.34
2023-03-27T10:04:52.328Z,81.30
2023-03-27T10:05:52.009Z,82.49
2023-03-27T10:06:53.299Z,84.19
2023-03-27T10:07:53.886Z,85.26
2023-03-27T10:08:54.013Z,86.30
2023-03-27T10:09:53.653Z,86.19
2023-03-27T10:10:53.667Z,85.78
2023-03-27T10:11:52.008Z,86.41
2023-03-27T10:12:52.397Z,87.09
2023-03-27T10:13:52.752Z,87.19
2023-03-27T10:14:52.805Z,86.64
2023-03-27T10:15:53.467Z,86.33
2023-03-27T10:16:52.741Z,86.64
2023-03-27T10:17:52.129Z,87.01
2023-03-27T10:18:52.446Z,86.91
2023-03-27T10:19:51.772Z,86.29
2023-03-27T10:20:53.100Z,86.18
2023-03-27T10:21:52.629Z,85.56
2023-03-27T10:22:54.674Z,86.66
2023-03-27T10:23:52.139Z,86.31
2023-03-27T10:24:53.454Z,83.62
2023-03-27T10:25:51.808Z,84.20
2023-03-27T10:26:53.130Z,85.61
2023-03-27T10:27:53.568Z,85.26
2023-03-27T10:28:52.808Z,81.95
2023-03-27T10:29:52.191Z,83.05
2023-03-27T10:30:52.548Z,80.50
2023-03-27T10:31:52.971Z,78.12
2023-03-27T10:32:53.240Z,78.78
2023-03-27T10:33:52.591Z,78.19
2023-03-27T10:34:52.791Z,79.13
2023-03-27T10:35:53.193Z,79.74
2023-03-27T10:36:52.454Z,79.64
2023-03-27T10:37:51.849Z,78.40
2023-03-27T10:38:52.206Z,78.19
2023-03-27T10:39:52.433Z,77.78
2023-03-27T10:40:52.756Z,78.50
2023-03-27T10:41:52.194Z,77.26
2023-03-27T10:42:51.471Z,78.61
2023-03-27T10:43:52.759Z,78.92
2023-03-27T10:44:53.138Z,78.36
2023-03-27T10:45:52.391Z,74.43
2023-03-27T10:46:51.773Z,74.43
2023-03-27T10:47:53.166Z,71.43
2023-03-27T10:48:51.381Z,70.39
2023-03-27T10:49:52.726Z,68.08
2023-03-27T10:50:52.038Z,67.36
2023-03-27T10:51:52.264Z,67.64
2023-03-27T10:52:51.682Z,68.46
2023-03-27T10:53:53.045Z,67.30
2023-03-27T10:54:51.322Z,67.40
2023-03-27T10:55:51.670Z,68.33
2023-03-27T10:56:52.955Z,65.41
2023-03-27T10:57:51.238Z,63.54
2023-03-27T10:58:52.454Z,64.27
2023-03-27T10:59:52.793Z,66.30
2023-03-27T11:00:53.090Z,64.45
2023-03-27T11:01:51.412Z,65.76
2023-03-27T11:02:51.731Z,62.87
2023-03-27T11:03:52.065Z,62.76
2023-03-27T11:04:52.175Z,66.86
2023-03-27T11:05:52.499Z,65.73
2023-03-27T11:06:52.831Z,63.97
2023-03-27T11:07:51.119Z,64.59
2023-03-27T11:08:52.320Z,65.34
2023-03-27T11:09:51.716Z,66.27
2023-03-27T11:10:52.098Z,66.93
2023-03-27T11:11:51.354Z,65.86
2023-03-27T11:12:52.648Z,64.93
2023-03-27T11:13:51.956Z,64.80
2023-03-27T11:14:52.171Z,64.83
2023-03-27T11:15:52.493Z,65.03
2023-03-27T11:16:51.880Z,66.10
2023-03-27T11:17:51.230Z,66.61
2023-03-27T11:18:51.432Z,65.79
2023-03-27T11:19:52.741Z,67.24
2023-03-27T11:20:51.059Z,66.41
2023-03-27T11:21:51.447Z,64.89
2023-03-27T11:22:52.691Z,65.51
2023-03-27T11:23:51.004Z,64.06
2023-03-27T11:24:51.297Z,62.51
2023-03-27T11:25:52.682Z,63.10
2023-03-27T11:26:50.913Z,63.10
2023-03-27T11:27:52.243Z,63.21
2023-03-27T11:28:52.513Z,64.45
2023-03-27T11:29:50.860Z,65.58
2023-03-27T11:30:51.246Z,65.79
2023-03-27T11:31:51.550Z,62.72
2023-03-27T11:32:50.838Z,62.20
2023-03-27T11:33:51.288Z,64.78
2023-03-27T11:34:51.477Z,65.09
2023-03-27T11:35:51.830Z,66.85
2023-03-27T11:36:51.174Z,67.19
2023-03-27T11:37:51.505Z,68.91
2023-03-27T11:38:50.798Z,71.12
2023-03-27T11:39:52.510Z,72.88
2023-03-27T11:40:51.505Z,73.32
2023-03-27T11:41:51.821Z,74.88
2023-03-27T11:42:52.146Z,74.71
2023-03-27T11:43:52.570Z,76.15
2023-03-27T11:44:50.897Z,76.78
2023-03-27T11:45:51.219Z,77.15
2023-03-27T11:46:51.568Z,76.61
2023-03-27T11:47:51.827Z,77.39
2023-03-27T11:48:52.185Z,75.12
2023-03-27T11:49:52.576Z,75.81
2023-03-27T11:50:50.817Z,75.05
2023-03-27T11:51:52.138Z,72.43
2023-03-27T11:52:52.448Z,73.33
2023-03-27T11:53:51.769Z,74.98
2023-03-27T11:54:52.068Z,73.50
2023-03-27T11:55:51.611Z,71.41
2023-03-27T11:56:51.736Z,71.37
2023-03-27T11:57:52.018Z,71.03
2023-03-27T11:58:52.306Z,70.37
2023-03-27T11:59:51.633Z,68.32
2023-03-27T12:00:51.942Z,68.39
2023-03-27T12:01:52.355Z,69.28
2023-03-27T12:02:50.721Z,69.25
2023-03-27T12:03:52.028Z,66.47
2023-03-27T12:04:51.260Z,67.19
2023-03-27T12:05:50.532Z,65.44
2023-03-27T12:06:51.796Z,65.06
2023-03-27T12:07:52.184Z,67.12
2023-03-27T12:08:50.402Z,67.74
2023-03-27T12:09:50.680Z,64.47
2023-03-27T12:10:52.056Z,65.81
2023-03-27T12:11:50.276Z,63.89
2023-03-27T12:12:51.573Z,65.43
2023-03-27T12:14:01.201Z,64.74
2023-03-27T12:14:51.173Z,62.68
2023-03-27T12:15:50.537Z,61.33
2023-03-27T12:16:50.864Z,64.25
2023-03-27T12:17:51.196Z,65.28
2023-03-27T12:19:01.995Z,62.81
2023-03-27T12:19:52.717Z,62.81
2023-03-27T12:20:53.597Z,64.28
2023-03-27T12:21:50.288Z,66.76
2023-03-27T12:22:51.728Z,67.69
2023-03-27T12:23:50.929Z,69.17
2023-03-27T12:24:59.458Z,67.82
2023-03-27T12:25:51.560Z,68.78
2023-03-27T12:26:51.769Z,69.82
2023-03-27T12:27:50.127Z,72.81
2023-03-27T12:28:50.385Z,74.46
2023-03-27T12:29:51.715Z,73.85
2023-03-27T12:30:50.065Z,71.47
2023-03-27T12:31:51.355Z,71.26
2023-03-27T12:32:53.371Z,71.88
2023-03-27T12:33:51.892Z,70.03
2023-03-27T12:34:51.197Z,70.72
2023-03-27T12:35:51.532Z,72.33
2023-03-27T12:36:50.820Z,71.64
2023-03-27T12:37:50.180Z,72.47
2023-03-27T12:38:51.397Z,73.57
2023-03-27T12:39:52.008Z,73.98
2023-03-27T12:40:50.009Z,72.09
2023-03-27T12:41:50.293Z,71.58
2023-03-27T12:42:50.729Z,72.16
2023-03-27T12:43:49.882Z,69.17
2023-03-27T12:44:50.210Z,68.38
2023-03-27T12:46:49.811Z,66.55
2023-03-27T12:47:50.187Z,68.24
2023-03-27T12:48:51.533Z,66.89
2023-03-27T12:49:49.788Z,69.40
2023-03-27T12:50:50.071Z,75.22
2023-03-27T12:51:51.426Z,77.39
2023-03-27T12:52:49.742Z,77.94
2023-03-27T12:53:50.107Z,78.39
2023-03-27T12:54:51.482Z,79.16